sensor_id;sensor_type;location;lat;lon;timestamp;pressure;altitude;pressure_sealevel;temperature;humidity
10948;BME280;5526;42.070;24.752;2022-09-09T00:00:57;99133.94;;;20.05;75.70
10948;BME280;5526;42.070;24.752;2022-09-09T00:03:34;99138.81;;;20.03;76.35
10948;BME280;5526;42.070;24.752;2022-09-09T00:06:09;99134.22;;;20.03;76.52
10948;BME280;5526;42.070;24.752;2022-09-09T00:08:58;99130.94;;;19.98;77.45
10948;BME280;5526;42.070;24.752;2022-09-09T00:11:32;99129.66;;;19.95;77.75
10948;BME280;5526;42.070;24.752;2022-09-09T00:14:08;99138.97;;;19.98;78.37
10948;BME280;5526;42.070;24.752;2022-09-09T00:16:41;99145.53;;;19.92;78.52
10948;BME280;5526;42.070;24.752;2022-09-09T00:19:20;99144.56;;;19.88;78.93
10948;BME280;5526;42.070;24.752;2022-09-09T00:21:56;99148.25;;;20.00;78.61
10948;BME280;5526;42.070;24.752;2022-09-09T00:24:29;99136.75;;;20.00;78.52
10948;BME280;5526;42.070;24.752;2022-09-09T00:27:06;99140.66;;;19.85;79.13
10948;BME280;5526;42.070;24.752;2022-09-09T00:29:40;99137.94;;;19.68;79.14
10948;BME280;5526;42.070;24.752;2022-09-09T00:32:13;99143.28;;;19.68;79.54
10948;BME280;5526;42.070;24.752;2022-09-09T00:34:50;99146.06;;;19.63;78.86
10948;BME280;5526;42.070;24.752;2022-09-09T00:37:19;99157.31;;;19.52;78.87
10948;BME280;5526;42.070;24.752;2022-09-09T00:39:49;99158.84;;;19.44;78.89
10948;BME280;5526;42.070;24.752;2022-09-09T00:42:22;99151.94;;;19.43;78.90
10948;BME280;5526;42.070;24.752;2022-09-09T00:44:56;99166.25;;;19.47;78.71
10948;BME280;5526;42.070;24.752;2022-09-09T00:47:38;99154.91;;;19.42;80.43
10948;BME280;5526;42.070;24.752;2022-09-09T00:50:21;99161.97;;;19.38;81.68
10948;BME280;5526;42.070;24.752;2022-09-09T00:53:02;99149.56;;;19.33;81.03
10948;BME280;5526;42.070;24.752;2022-09-09T00:55:40;99139.69;;;19.20;82.27
10948;BME280;5526;42.070;24.752;2022-09-09T00:58:09;99153.53;;;19.22;82.49
10948;BME280;5526;42.070;24.752;2022-09-09T01:00:42;99154.94;;;19.20;83.19
10948;BME280;5526;42.070;24.752;2022-09-09T01:03:30;99156.16;;;19.14;83.26
10948;BME280;5526;42.070;24.752;2022-09-09T01:06:12;99158.94;;;19.09;83.29
10948;BME280;5526;42.070;24.752;2022-09-09T01:11:36;99172.88;;;18.84;86.40
10948;BME280;5526;42.070;24.752;2022-09-09T01:14:16;99169.13;;;18.85;86.45
10948;BME280;5526;42.070;24.752;2022-09-09T01:16:46;99170.69;;;18.86;86.11
10948;BME280;5526;42.070;24.752;2022-09-09T01:19:19;99163.38;;;18.91;86.01
10948;BME280;5526;42.070;24.752;2022-09-09T01:22:00;99158.03;;;18.91;85.99
10948;BME280;5526;42.070;24.752;2022-09-09T01:24:35;99148.94;;;18.92;86.24
10948;BME280;5526;42.070;24.752;2022-09-09T01:27:07;99150.50;;;18.93;86.33
10948;BME280;5526;42.070;24.752;2022-09-09T01:29:36;99154.56;;;18.91;87.03
10948;BME280;5526;42.070;24.752;2022-09-09T01:32:39;99155.66;;;18.90;86.67
10948;BME280;5526;42.070;24.752;2022-09-09T01:35:10;99153.00;;;18.90;87.27
10948;BME280;5526;42.070;24.752;2022-09-09T01:37:39;99149.97;;;18.83;87.16
10948;BME280;5526;42.070;24.752;2022-09-09T01:40:08;99150.25;;;18.81;86.93
10948;BME280;5526;42.070;24.752;2022-09-09T01:42:36;99148.56;;;18.85;88.04
10948;BME280;5526;42.070;24.752;2022-09-09T01:45:05;99159.38;;;18.80;88.60
10948;BME280;5526;42.070;24.752;2022-09-09T01:47:32;99152.88;;;18.73;89.22
10948;BME280;5526;42.070;24.752;2022-09-09T01:50:00;99149.41;;;18.72;89.51
10948;BME280;5526;42.070;24.752;2022-09-09T01:52:27;99157.41;;;18.72;89.19
10948;BME280;5526;42.070;24.752;2022-09-09T01:54:55;99151.78;;;18.74;89.51
10948;BME280;5526;42.070;24.752;2022-09-09T01:57:25;99149.41;;;18.72;89.88
10948;BME280;5526;42.070;24.752;2022-09-09T02:00:02;99152.97;;;18.68;90.08
10948;BME280;5526;42.070;24.752;2022-09-09T02:02:33;99149.34;;;18.64;90.43
10948;BME280;5526;42.070;24.752;2022-09-09T02:05:11;99153.69;;;18.60;90.11
10948;BME280;5526;42.070;24.752;2022-09-09T02:07:47;99149.47;;;18.59;89.65
10948;BME280;5526;42.070;24.752;2022-09-09T02:10:17;99149.78;;;18.57;88.55
10948;BME280;5526;42.070;24.752;2022-09-09T02:12:49;99140.00;;;18.53;88.94
10948;BME280;5526;42.070;24.752;2022-09-09T02:15:26;99148.00;;;18.53;89.43
10948;BME280;5526;42.070;24.752;2022-09-09T02:17:56;99149.38;;;18.50;89.60
10948;BME280;5526;42.070;24.752;2022-09-09T02:20:25;99146.94;;;18.54;89.58
10948;BME280;5526;42.070;24.752;2022-09-09T02:22:56;99143.75;;;18.52;90.07
10948;BME280;5526;42.070;24.752;2022-09-09T02:25:26;99136.84;;;18.51;90.74
10948;BME280;5526;42.070;24.752;2022-09-09T02:27:55;99142.19;;;18.51;90.80
10948;BME280;5526;42.070;24.752;2022-09-09T02:30:26;99140.00;;;18.53;90.28
10948;BME280;5526;42.070;24.752;2022-09-09T02:32:57;99135.47;;;18.53;90.20
10948;BME280;5526;42.070;24.752;2022-09-09T02:35:25;99136.19;;;18.45;90.83
10948;BME280;5526;42.070;24.752;2022-09-09T02:37:56;99135.38;;;18.45;90.39
10948;BME280;5526;42.070;24.752;2022-09-09T02:40:25;99139.66;;;18.46;90.24
10948;BME280;5526;42.070;24.752;2022-09-09T02:42:54;99137.75;;;18.46;90.13
10948;BME280;5526;42.070;24.752;2022-09-09T02:45:25;99130.38;;;18.43;89.18
10948;BME280;5526;42.070;24.752;2022-09-09T02:48:00;99134.91;;;18.29;88.93
10948;BME280;5526;42.070;24.752;2022-09-09T02:50:33;99147.94;;;18.31;88.98
10948;BME280;5526;42.070;24.752;2022-09-09T02:53:07;99143.09;;;18.33;88.78
10948;BME280;5526;42.070;24.752;2022-09-09T02:55:41;99143.09;;;18.33;88.90
10948;BME280;5526;42.070;24.752;2022-09-09T02:58:10;99151.69;;;18.30;89.37
10948;BME280;5526;42.070;24.752;2022-09-09T03:00:39;99154.38;;;18.30;89.42
10948;BME280;5526;42.070;24.752;2022-09-09T03:03:07;99158.22;;;18.24;89.93
10948;BME280;5526;42.070;24.752;2022-09-09T03:05:35;99157.41;;;18.23;90.29
10948;BME280;5526;42.070;24.752;2022-09-09T03:08:03;99155.53;;;18.24;90.59
10948;BME280;5526;42.070;24.752;2022-09-09T03:10:31;99148.34;;;18.24;91.10
10948;BME280;5526;42.070;24.752;2022-09-09T03:12:58;99153.97;;;18.23;91.36
10948;BME280;5526;42.070;24.752;2022-09-09T03:15:25;99150.22;;;18.24;91.58
10948;BME280;5526;42.070;24.752;2022-09-09T03:17:56;99161.69;;;18.24;92.05
10948;BME280;5526;42.070;24.752;2022-09-09T03:20:23;99148.94;;;18.21;92.27
10948;BME280;5526;42.070;24.752;2022-09-09T03:22:51;99154.16;;;18.26;92.36
10948;BME280;5526;42.070;24.752;2022-09-09T03:25:18;99155.53;;;18.24;91.97
10948;BME280;5526;42.070;24.752;2022-09-09T03:27:46;99157.75;;;18.22;92.23
10948;BME280;5526;42.070;24.752;2022-09-09T03:30:13;99175.19;;;18.14;92.30
10948;BME280;5526;42.070;24.752;2022-09-09T03:32:41;99167.50;;;18.13;92.25
10948;BME280;5526;42.070;24.752;2022-09-09T03:35:09;99171.84;;;18.09;92.25
10948;BME280;5526;42.070;24.752;2022-09-09T03:37:37;99180.75;;;17.91;93.88
10948;BME280;5526;42.070;24.752;2022-09-09T03:40:05;99183.19;;;17.74;95.43
10948;BME280;5526;42.070;24.752;2022-09-09T03:42:32;99180.72;;;17.64;96.26
10948;BME280;5526;42.070;24.752;2022-09-09T03:45:01;99184.25;;;17.59;96.29
10948;BME280;5526;42.070;24.752;2022-09-09T03:47:28;99181.22;;;17.66;95.74
10948;BME280;5526;42.070;24.752;2022-09-09T03:49:55;99176.47;;;17.63;95.47
10948;BME280;5526;42.070;24.752;2022-09-09T03:52:24;99187.63;;;17.65;95.34
10948;BME280;5526;42.070;24.752;2022-09-09T03:54:52;99165.16;;;17.57;95.39
10948;BME280;5526;42.070;24.752;2022-09-09T03:57:19;99176.41;;;17.68;95.14
10948;BME280;5526;42.070;24.752;2022-09-09T03:59:47;99180.03;;;17.72;95.04
10948;BME280;5526;42.070;24.752;2022-09-09T04:02:14;99175.19;;;17.74;94.77
10948;BME280;5526;42.070;24.752;2022-09-09T04:04:41;99179.47;;;17.75;94.43
10948;BME280;5526;42.070;24.752;2022-09-09T04:07:08;99173.53;;;17.78;94.45
10948;BME280;5526;42.070;24.752;2022-09-09T04:09:38;99168.59;;;17.85;94.11
10948;BME280;5526;42.070;24.752;2022-09-09T04:12:06;99166.22;;;17.83;94.06
10948;BME280;5526;42.070;24.752;2022-09-09T04:14:33;99164.16;;;17.80;94.95
10948;BME280;5526;42.070;24.752;2022-09-09T04:17:00;99170.28;;;17.81;95.18
10948;BME280;5526;42.070;24.752;2022-09-09T04:19:31;99167.50;;;17.72;95.85
10948;BME280;5526;42.070;24.752;2022-09-09T04:21:59;99171.84;;;17.68;95.86
10948;BME280;5526;42.070;24.752;2022-09-09T04:24:26;99179.53;;;17.70;96.09
10948;BME280;5526;42.070;24.752;2022-09-09T04:26:56;99171.56;;;17.70;96.10
10948;BME280;5526;42.070;24.752;2022-09-09T04:29:23;99166.63;;;17.77;95.99
10948;BME280;5526;42.070;24.752;2022-09-09T04:31:50;99162.41;;;17.76;95.83
10948;BME280;5526;42.070;24.752;2022-09-09T04:34:17;99168.13;;;17.83;95.38
10948;BME280;5526;42.070;24.752;2022-09-09T04:36:44;99172.94;;;17.94;95.11
10948;BME280;5526;42.070;24.752;2022-09-09T04:39:11;99175.09;;;18.06;94.70
10948;BME280;5526;42.070;24.752;2022-09-09T04:41:39;99176.00;;;18.01;95.26
10948;BME280;5526;42.070;24.752;2022-09-09T04:44:07;99181.44;;;17.96;95.89
10948;BME280;5526;42.070;24.752;2022-09-09T04:46:35;99179.84;;;17.95;95.50
10948;BME280;5526;42.070;24.752;2022-09-09T04:49:02;99176.88;;;18.10;94.84
10948;BME280;5526;42.070;24.752;2022-09-09T04:51:30;99179.34;;;18.07;95.18
10948;BME280;5526;42.070;24.752;2022-09-09T04:53:58;99184.09;;;17.96;95.91
10948;BME280;5526;42.070;24.752;2022-09-09T04:56:25;99182.59;;;18.04;95.53
10948;BME280;5526;42.070;24.752;2022-09-09T04:58:53;99186.84;;;18.05;95.12
10948;BME280;5526;42.070;24.752;2022-09-09T05:01:22;99199.06;;;18.06;95.00
10948;BME280;5526;42.070;24.752;2022-09-09T05:03:50;99214.06;;;18.15;94.31
10948;BME280;5526;42.070;24.752;2022-09-09T05:06:20;99206.34;;;18.14;94.21
10948;BME280;5526;42.070;24.752;2022-09-09T05:08:47;99205.00;;;18.03;95.04
10948;BME280;5526;42.070;24.752;2022-09-09T05:11:16;99205.47;;;18.05;95.62
10948;BME280;5526;42.070;24.752;2022-09-09T05:13:44;99202.00;;;18.45;93.95
10948;BME280;5526;42.070;24.752;2022-09-09T05:16:11;99197.00;;;18.79;92.59
10948;BME280;5526;42.070;24.752;2022-09-09T05:18:40;99199.91;;;18.91;91.96
10948;BME280;5526;42.070;24.752;2022-09-09T05:21:09;99195.69;;;18.90;92.25
10948;BME280;5526;42.070;24.752;2022-09-09T05:23:36;99190.34;;;19.12;91.28
10948;BME280;5526;42.070;24.752;2022-09-09T05:26:04;99191.28;;;19.29;90.43
10948;BME280;5526;42.070;24.752;2022-09-09T05:28:34;99189.38;;;19.52;89.13
10948;BME280;5526;42.070;24.752;2022-09-09T05:31:02;99189.72;;;19.59;86.77
10948;BME280;5526;42.070;24.752;2022-09-09T05:33:31;99187.34;;;19.57;86.52
10948;BME280;5526;42.070;24.752;2022-09-09T05:36:01;99180.66;;;19.77;85.74
10948;BME280;5526;42.070;24.752;2022-09-09T05:38:30;99188.13;;;19.88;84.77
10948;BME280;5526;42.070;24.752;2022-09-09T05:40:58;99185.13;;;19.51;85.98
10948;BME280;5526;42.070;24.752;2022-09-09T05:43:26;99195.66;;;19.25;86.94
10948;BME280;5526;42.070;24.752;2022-09-09T05:46:02;99199.63;;;19.14;87.70
10948;BME280;5526;42.070;24.752;2022-09-09T05:48:30;99206.19;;;19.30;88.21
10948;BME280;5526;42.070;24.752;2022-09-09T05:50:59;99200.56;;;19.62;86.66
10948;BME280;5526;42.070;24.752;2022-09-09T05:53:28;99198.44;;;19.81;86.43
10948;BME280;5526;42.070;24.752;2022-09-09T05:56:02;99198.63;;;19.85;85.69
10948;BME280;5526;42.070;24.752;2022-09-09T05:58:30;99193.47;;;19.97;86.12
10948;BME280;5526;42.070;24.752;2022-09-09T06:01:02;99190.94;;;20.48;84.08
10948;BME280;5526;42.070;24.752;2022-09-09T06:03:29;99203.69;;;20.51;82.81
10948;BME280;5526;42.070;24.752;2022-09-09T06:05:58;99198.66;;;20.41;83.70
10948;BME280;5526;42.070;24.752;2022-09-09T06:08:27;99187.50;;;20.64;82.95
10948;BME280;5526;42.070;24.752;2022-09-09T06:11:01;99170.66;;;20.64;82.21
10948;BME280;5526;42.070;24.752;2022-09-09T06:13:29;99163.44;;;20.64;82.79
10948;BME280;5526;42.070;24.752;2022-09-09T06:15:56;99161.72;;;20.94;81.19
10948;BME280;5526;42.070;24.752;2022-09-09T06:18:24;99169.56;;;20.99;80.63
10948;BME280;5526;42.070;24.752;2022-09-09T06:20:56;99178.88;;;21.02;79.70
10948;BME280;5526;42.070;24.752;2022-09-09T06:23:24;99177.91;;;20.89;81.03
10948;BME280;5526;42.070;24.752;2022-09-09T06:26:01;99174.31;;;21.02;79.77
10948;BME280;5526;42.070;24.752;2022-09-09T06:28:28;99174.66;;;20.92;79.86
10948;BME280;5526;42.070;24.752;2022-09-09T06:30:58;99174.94;;;21.16;78.88
10948;BME280;5526;42.070;24.752;2022-09-09T06:33:25;99180.78;;;21.56;76.90
10948;BME280;5526;42.070;24.752;2022-09-09T06:35:53;99186.38;;;21.88;74.98
10948;BME280;5526;42.070;24.752;2022-09-09T06:38:22;99190.88;;;22.05;73.57
10948;BME280;5526;42.070;24.752;2022-09-09T06:40:55;99196.78;;;21.90;70.26
10948;BME280;5526;42.070;24.752;2022-09-09T06:43:23;99196.66;;;21.78;71.86
10948;BME280;5526;42.070;24.752;2022-09-09T06:45:55;99193.56;;;22.05;70.94
10948;BME280;5526;42.070;24.752;2022-09-09T06:48:22;99198.53;;;22.44;69.88
10948;BME280;5526;42.070;24.752;2022-09-09T06:50:51;99202.97;;;22.48;69.41
10948;BME280;5526;42.070;24.752;2022-09-09T06:53:19;99192.94;;;22.28;69.79
10948;BME280;5526;42.070;24.752;2022-09-09T06:55:46;99196.88;;;22.02;70.05
10948;BME280;5526;42.070;24.752;2022-09-09T06:58:15;99198.25;;;22.37;67.46
10948;BME280;5526;42.070;24.752;2022-09-09T07:00:42;99200.34;;;22.60;67.91
10948;BME280;5526;42.070;24.752;2022-09-09T07:03:09;99198.16;;;22.54;67.43
10948;BME280;5526;42.070;24.752;2022-09-09T07:05:37;99195.59;;;22.98;65.67
10948;BME280;5526;42.070;24.752;2022-09-09T07:08:04;99187.44;;;22.95;65.55
10948;BME280;5526;42.070;24.752;2022-09-09T07:10:31;99194.44;;;23.40;64.09
10948;BME280;5526;42.070;24.752;2022-09-09T07:12:59;99197.63;;;23.66;63.85
10948;BME280;5526;42.070;24.752;2022-09-09T07:15:28;99195.28;;;23.65;62.35
10948;BME280;5526;42.070;24.752;2022-09-09T07:17:55;99190.72;;;23.77;62.92
10948;BME280;5526;42.070;24.752;2022-09-09T07:20:27;99191.28;;;24.31;61.56
10948;BME280;5526;42.070;24.752;2022-09-09T07:22:55;99188.16;;;24.05;61.84
10948;BME280;5526;42.070;24.752;2022-09-09T07:25:24;99206.41;;;23.99;61.97
10948;BME280;5526;42.070;24.752;2022-09-09T07:27:52;99200.84;;;24.16;61.09
10948;BME280;5526;42.070;24.752;2022-09-09T07:30:20;99201.38;;;23.98;61.23
10948;BME280;5526;42.070;24.752;2022-09-09T07:32:50;99198.09;;;24.52;60.04
10948;BME280;5526;42.070;24.752;2022-09-09T07:35:18;99197.44;;;24.19;59.61
10948;BME280;5526;42.070;24.752;2022-09-09T07:37:45;99194.66;;;24.16;60.31
10948;BME280;5526;42.070;24.752;2022-09-09T07:40:12;99196.06;;;24.49;59.24
10948;BME280;5526;42.070;24.752;2022-09-09T07:42:40;99187.09;;;24.70;58.26
10948;BME280;5526;42.070;24.752;2022-09-09T07:45:08;99188.84;;;24.78;58.01
10948;BME280;5526;42.070;24.752;2022-09-09T07:47:35;99193.16;;;25.22;56.44
10948;BME280;5526;42.070;24.752;2022-09-09T07:50:04;99189.88;;;25.01;56.77
10948;BME280;5526;42.070;24.752;2022-09-09T07:52:33;99192.31;;;25.06;56.31
10948;BME280;5526;42.070;24.752;2022-09-09T07:55:00;99184.44;;;25.13;56.14
10948;BME280;5526;42.070;24.752;2022-09-09T07:57:30;99184.28;;;25.33;55.70
10948;BME280;5526;42.070;24.752;2022-09-09T07:59:57;99179.59;;;25.46;54.37
10948;BME280;5526;42.070;24.752;2022-09-09T08:02:24;99182.09;;;25.39;54.77
10948;BME280;5526;42.070;24.752;2022-09-09T08:04:54;99171.25;;;25.66;53.87
10948;BME280;5526;42.070;24.752;2022-09-09T08:07:23;99175.84;;;26.12;51.87
10948;BME280;5526;42.070;24.752;2022-09-09T08:09:50;99174.22;;;26.42;51.56
10948;BME280;5526;42.070;24.752;2022-09-09T08:12:17;99173.25;;;26.50;50.83
10948;BME280;5526;42.070;24.752;2022-09-09T08:14:44;99171.16;;;26.78;50.04
10948;BME280;5526;42.070;24.752;2022-09-09T08:17:12;99162.91;;;26.71;50.27
10948;BME280;5526;42.070;24.752;2022-09-09T08:19:39;99157.84;;;26.89;49.64
10948;BME280;5526;42.070;24.752;2022-09-09T08:22:06;99164.25;;;26.62;50.15
10948;BME280;5526;42.070;24.752;2022-09-09T08:24:34;99168.25;;;26.87;49.94
10948;BME280;5526;42.070;24.752;2022-09-09T08:27:02;99157.78;;;26.85;49.29
10948;BME280;5526;42.070;24.752;2022-09-09T08:29:29;99160.91;;;27.06;49.44
10948;BME280;5526;42.070;24.752;2022-09-09T08:31:57;99156.84;;;27.16;48.57
10948;BME280;5526;42.070;24.752;2022-09-09T08:34:25;99148.38;;;27.17;48.96
10948;BME280;5526;42.070;24.752;2022-09-09T08:36:53;99152.97;;;27.36;48.23
10948;BME280;5526;42.070;24.752;2022-09-09T08:39:21;99146.47;;;27.18;49.09
10948;BME280;5526;42.070;24.752;2022-09-09T08:42:04;99154.56;;;27.18;48.91
10948;BME280;5526;42.070;24.752;2022-09-09T08:44:48;99157.19;;;27.33;47.82
10948;BME280;5526;42.070;24.752;2022-09-09T08:47:23;99169.09;;;27.51;46.71
10948;BME280;5526;42.070;24.752;2022-09-09T08:50:05;99154.28;;;27.23;48.11
10948;BME280;5526;42.070;24.752;2022-09-09T08:52:43;99149.16;;;27.18;48.63
10948;BME280;5526;42.070;24.752;2022-09-09T08:55:24;99150.34;;;27.39;48.33
10948;BME280;5526;42.070;24.752;2022-09-09T08:57:55;99149.91;;;27.37;47.75
10948;BME280;5526;42.070;24.752;2022-09-09T09:00:29;99157.84;;;27.49;46.84
10948;BME280;5526;42.070;24.752;2022-09-09T09:03:05;99141.06;;;27.85;47.20
10948;BME280;5526;42.070;24.752;2022-09-09T09:05:40;99142.84;;;28.00;45.95
10948;BME280;5526;42.070;24.752;2022-09-09T09:08:18;99145.97;;;27.54;46.60
10948;BME280;5526;42.070;24.752;2022-09-09T09:10:49;99136.97;;;27.27;48.00
10948;BME280;5526;42.070;24.752;2022-09-09T09:13:20;99147.03;;;27.49;47.54
10948;BME280;5526;42.070;24.752;2022-09-09T09:15:52;99139.91;;;28.09;46.00
10948;BME280;5526;42.070;24.752;2022-09-09T09:18:20;99132.75;;;28.50;44.89
10948;BME280;5526;42.070;24.752;2022-09-09T09:20:54;99125.06;;;28.88;45.05
10948;BME280;5526;42.070;24.752;2022-09-09T09:23:27;99128.00;;;29.06;44.55
10948;BME280;5526;42.070;24.752;2022-09-09T09:26:00;99114.91;;;29.15;43.66
10948;BME280;5526;42.070;24.752;2022-09-09T09:28:30;99110.25;;;29.12;43.08
10948;BME280;5526;42.070;24.752;2022-09-09T09:31:03;99106.56;;;29.30;43.59
10948;BME280;5526;42.070;24.752;2022-09-09T09:33:35;99106.13;;;29.28;43.53
10948;BME280;5526;42.070;24.752;2022-09-09T09:36:06;99103.03;;;29.26;43.60
10948;BME280;5526;42.070;24.752;2022-09-09T09:38:35;99101.06;;;29.23;44.13
10948;BME280;5526;42.070;24.752;2022-09-09T09:41:03;99096.56;;;29.01;43.72
10948;BME280;5526;42.070;24.752;2022-09-09T09:43:33;99089.09;;;29.28;43.50
10948;BME280;5526;42.070;24.752;2022-09-09T09:46:03;99088.84;;;29.43;43.57
10948;BME280;5526;42.070;24.752;2022-09-09T09:48:31;99074.41;;;29.32;42.92
10948;BME280;5526;42.070;24.752;2022-09-09T09:50:59;99082.63;;;29.43;43.19
10948;BME280;5526;42.070;24.752;2022-09-09T09:53:29;99079.88;;;29.39;42.60
10948;BME280;5526;42.070;24.752;2022-09-09T09:55:59;99085.16;;;29.65;42.54
10948;BME280;5526;42.070;24.752;2022-09-09T09:58:28;99078.84;;;29.07;43.63
10948;BME280;5526;42.070;24.752;2022-09-09T10:01:01;99072.97;;;29.45;42.99
10948;BME280;5526;42.070;24.752;2022-09-09T10:03:35;99081.00;;;29.35;42.64
10948;BME280;5526;42.070;24.752;2022-09-09T10:06:06;99075.03;;;29.15;43.59
10948;BME280;5526;42.070;24.752;2022-09-09T10:08:34;99054.97;;;29.27;42.48
10948;BME280;5526;42.070;24.752;2022-09-09T10:11:44;99053.59;;;29.47;42.99
10948;BME280;5526;42.070;24.752;2022-09-09T10:14:19;99056.47;;;29.64;41.68
10948;BME280;5526;42.070;24.752;2022-09-09T10:17:07;99051.88;;;29.75;40.91
10948;BME280;5526;42.070;24.752;2022-09-09T10:19:37;99051.22;;;29.92;41.82
10948;BME280;5526;42.070;24.752;2022-09-09T10:22:19;99056.66;;;29.96;42.02
10948;BME280;5526;42.070;24.752;2022-09-09T10:25:25;99042.63;;;29.83;41.99
10948;BME280;5526;42.070;24.752;2022-09-09T10:28:12;99043.31;;;29.70;41.49
10948;BME280;5526;42.070;24.752;2022-09-09T10:30:53;99044.53;;;29.76;42.14
10948;BME280;5526;42.070;24.752;2022-09-09T10:33:31;99050.97;;;30.15;41.01
10948;BME280;5526;42.070;24.752;2022-09-09T10:36:08;99052.56;;;30.26;40.62
10948;BME280;5526;42.070;24.752;2022-09-09T10:38:40;99036.72;;;30.42;41.80
10948;BME280;5526;42.070;24.752;2022-09-09T10:41:16;99046.84;;;30.52;41.04
10948;BME280;5526;42.070;24.752;2022-09-09T10:47:01;99040.31;;;30.71;41.47
10948;BME280;5526;42.070;24.752;2022-09-09T10:49:48;99037.66;;;30.92;39.98
10948;BME280;5526;42.070;24.752;2022-09-09T10:52:24;99035.72;;;30.89;40.45
10948;BME280;5526;42.070;24.752;2022-09-09T10:54:57;99026.41;;;31.04;40.08
10948;BME280;5526;42.070;24.752;2022-09-09T10:57:31;99027.16;;;30.90;40.82
10948;BME280;5526;42.070;24.752;2022-09-09T11:00:04;99023.25;;;30.70;41.01
10948;BME280;5526;42.070;24.752;2022-09-09T11:02:34;99023.59;;;30.58;41.29
10948;BME280;5526;42.070;24.752;2022-09-09T11:05:06;99016.16;;;30.41;41.23
10948;BME280;5526;42.070;24.752;2022-09-09T11:07:40;99018.53;;;30.60;41.95
10948;BME280;5526;42.070;24.752;2022-09-09T11:10:17;99015.91;;;30.92;40.30
10948;BME280;5526;42.070;24.752;2022-09-09T11:12:51;99012.78;;;31.11;40.07
10948;BME280;5526;42.070;24.752;2022-09-09T11:15:24;99010.84;;;31.22;39.46
10948;BME280;5526;42.070;24.752;2022-09-09T11:17:55;99009.34;;;31.28;39.68
10948;BME280;5526;42.070;24.752;2022-09-09T11:20:25;99006.97;;;31.30;39.92
10948;BME280;5526;42.070;24.752;2022-09-09T11:22:56;99005.81;;;31.41;39.06
10948;BME280;5526;42.070;24.752;2022-09-09T11:25:30;99006.22;;;31.40;39.46
10948;BME280;5526;42.070;24.752;2022-09-09T11:28:24;98997.25;;;31.53;39.19
10948;BME280;5526;42.070;24.752;2022-09-09T11:31:16;98986.72;;;31.55;38.92
10948;BME280;5526;42.070;24.752;2022-09-09T11:36:51;98978.56;;;31.63;39.24
10948;BME280;5526;42.070;24.752;2022-09-09T11:42:35;98981.72;;;30.80;40.30
10948;BME280;5526;42.070;24.752;2022-09-09T11:45:19;98982.81;;;30.62;40.43
10948;BME280;5526;42.070;24.752;2022-09-09T11:47:57;98990.59;;;30.56;40.86
10948;BME280;5526;42.070;24.752;2022-09-09T11:50:30;98980.88;;;30.59;41.04
10948;BME280;5526;42.070;24.752;2022-09-09T11:53:21;98977.81;;;30.71;40.71
10948;BME280;5526;42.070;24.752;2022-09-09T11:56:04;98971.94;;;30.51;41.10
10948;BME280;5526;42.070;24.752;2022-09-09T11:58:37;98962.22;;;30.47;41.52
10948;BME280;5526;42.070;24.752;2022-09-09T12:01:26;98966.91;;;30.50;41.60
10948;BME280;5526;42.070;24.752;2022-09-09T12:07:00;98965.41;;;30.70;41.16
10948;BME280;5526;42.070;24.752;2022-09-09T12:09:45;98954.94;;;30.75;41.76
10948;BME280;5526;42.070;24.752;2022-09-09T12:12:28;98957.59;;;30.68;41.38
10948;BME280;5526;42.070;24.752;2022-09-09T12:15:01;98942.88;;;31.01;40.63
10948;BME280;5526;42.070;24.752;2022-09-09T12:17:30;98957.63;;;30.89;41.12
10948;BME280;5526;42.070;24.752;2022-09-09T12:20:11;98954.13;;;30.61;41.41
10948;BME280;5526;42.070;24.752;2022-09-09T12:22:57;98938.59;;;30.65;41.32
10948;BME280;5526;42.070;24.752;2022-09-09T12:25:36;98943.22;;;30.57;41.54
10948;BME280;5526;42.070;24.752;2022-09-09T12:28:11;98938.16;;;30.35;41.71
10948;BME280;5526;42.070;24.752;2022-09-09T12:30:47;98935.44;;;30.31;41.25
10948;BME280;5526;42.070;24.752;2022-09-09T12:33:18;98925.72;;;30.23;41.37
10948;BME280;5526;42.070;24.752;2022-09-09T12:35:51;98926.50;;;30.34;41.63
10948;BME280;5526;42.070;24.752;2022-09-09T12:38:25;98923.47;;;30.81;39.75
10948;BME280;5526;42.070;24.752;2022-09-09T12:40:57;98915.72;;;30.90;40.53
10948;BME280;5526;42.070;24.752;2022-09-09T12:43:25;98918.41;;;30.94;40.42
10948;BME280;5526;42.070;24.752;2022-09-09T12:45:56;98919.19;;;30.98;40.64
10948;BME280;5526;42.070;24.752;2022-09-09T12:48:30;98920.75;;;30.71;41.21
10948;BME280;5526;42.070;24.752;2022-09-09T12:50:59;98918.44;;;30.73;40.95
10948;BME280;5526;42.070;24.752;2022-09-09T12:53:30;98914.94;;;30.72;40.77
10948;BME280;5526;42.070;24.752;2022-09-09T12:56:03;98911.81;;;30.84;41.06
10948;BME280;5526;42.070;24.752;2022-09-09T12:58:33;98910.97;;;31.36;39.76
10948;BME280;5526;42.070;24.752;2022-09-09T13:01:02;98909.75;;;31.66;40.15
10948;BME280;5526;42.070;24.752;2022-09-09T13:03:31;98910.56;;;31.52;40.26
10948;BME280;5526;42.070;24.752;2022-09-09T13:06:11;98897.19;;;32.00;39.69
10948;BME280;5526;42.070;24.752;2022-09-09T13:08:38;98895.22;;;32.04;38.74
10948;BME280;5526;42.070;24.752;2022-09-09T13:11:12;98887.91;;;31.80;39.79
10948;BME280;5526;42.070;24.752;2022-09-09T13:13:42;98897.25;;;31.72;39.31
10948;BME280;5526;42.070;24.752;2022-09-09T13:16:20;98891.38;;;31.94;37.89
10948;BME280;5526;42.070;24.752;2022-09-09T13:18:47;98886.13;;;32.24;38.26
10948;BME280;5526;42.070;24.752;2022-09-09T13:21:15;98886.03;;;32.42;38.73
10948;BME280;5526;42.070;24.752;2022-09-09T13:23:48;98875.66;;;32.74;37.37
10948;BME280;5526;42.070;24.752;2022-09-09T13:26:25;98875.28;;;32.72;36.23
10948;BME280;5526;42.070;24.752;2022-09-09T13:28:53;98869.53;;;32.59;37.65
10948;BME280;5526;42.070;24.752;2022-09-09T13:31:22;98879.78;;;32.48;38.69
10948;BME280;5526;42.070;24.752;2022-09-09T13:33:50;98878.97;;;32.48;37.78
10948;BME280;5526;42.070;24.752;2022-09-09T13:36:27;98864.13;;;32.56;37.57
10948;BME280;5526;42.070;24.752;2022-09-09T13:38:57;98874.97;;;32.63;37.52